sensor_id;sensor_type;location;lat;lon;timestamp;temperature;humidity
71206;SHT31;58935;54.498;18.544;2023-07-20T00:00:23;14.23;78.37
71206;SHT31;58935;54.498;18.544;2023-07-20T00:02:50;14.23;78.42
71206;SHT31;58935;54.498;18.544;2023-07-20T00:05:16;14.20;78.38
71206;SHT31;58935;54.498;18.544;2023-07-20T00:07:43;14.19;78.38
71206;SHT31;58935;54.498;18.544;2023-07-20T00:10:09;14.19;78.38
71206;SHT31;58935;54.498;18.544;2023-07-20T00:12:34;14.20;78.47
71206;SHT31;58935;54.498;18.544;2023-07-20T00:15:00;14.21;78.42
71206;SHT31;58935;54.498;18.544;2023-07-20T00:17:26;14.22;78.53
71206;SHT31;58935;54.498;18.544;2023-07-20T00:19:51;14.21;78.57
71206;SHT31;58935;54.498;18.544;2023-07-20T00:22:16;14.20;78.68
71206;SHT31;58935;54.498;18.544;2023-07-20T00:24:42;14.19;78.57
71206;SHT31;58935;54.498;18.544;2023-07-20T00:27:07;14.18;78.64
71206;SHT31;58935;54.498;18.544;2023-07-20T00:29:32;14.19;78.73
71206;SHT31;58935;54.498;18.544;2023-07-20T00:31:58;14.19;78.75
71206;SHT31;58935;54.498;18.544;2023-07-20T00:34:23;14.20;78.68
71206;SHT31;58935;54.498;18.544;2023-07-20T00:36:49;14.21;78.71
71206;SHT31;58935;54.498;18.544;2023-07-20T00:39:15;14.24;78.60
71206;SHT31;58935;54.498;18.544;2023-07-20T00:41:40;14.26;78.59
71206;SHT31;58935;54.498;18.544;2023-07-20T00:44:05;14.28;78.58
71206;SHT31;58935;54.498;18.544;2023-07-20T00:46:31;14.30;78.56
71206;SHT31;58935;54.498;18.544;2023-07-20T00:48:57;14.34;78.43
71206;SHT31;58935;54.498;18.544;2023-07-20T00:51:23;14.37;78.38
71206;SHT31;58935;54.498;18.544;2023-07-20T00:53:51;14.38;78.29
71206;SHT31;58935;54.498;18.544;2023-07-20T00:56:18;14.40;78.21
71206;SHT31;58935;54.498;18.544;2023-07-20T00:58:44;14.43;78.18
71206;SHT31;58935;54.498;18.544;2023-07-20T01:01:10;14.46;78.02
71206;SHT31;58935;54.498;18.544;2023-07-20T01:03:35;14.48;77.93
71206;SHT31;58935;54.498;18.544;2023-07-20T01:09:05;14.51;77.90
71206;SHT31;58935;54.498;18.544;2023-07-20T01:14:31;14.51;77.80
71206;SHT31;58935;54.498;18.544;2023-07-20T01:16:58;14.51;77.98
71206;SHT31;58935;54.498;18.544;2023-07-20T01:19:23;14.51;77.93
71206;SHT31;58935;54.498;18.544;2023-07-20T01:21:55;14.52;77.89
71206;SHT31;58935;54.498;18.544;2023-07-20T01:33:48;14.49;77.96
71206;SHT31;58935;54.498;18.544;2023-07-20T01:36:17;14.51;78.05
71206;SHT31;58935;54.498;18.544;2023-07-20T01:38:44;14.53;77.93
71206;SHT31;58935;54.498;18.544;2023-07-20T01:41:11;14.53;77.90
71206;SHT31;58935;54.498;18.544;2023-07-20T01:43:37;14.53;77.90
71206;SHT31;58935;54.498;18.544;2023-07-20T01:46:02;14.52;77.81
71206;SHT31;58935;54.498;18.544;2023-07-20T01:48:28;14.51;77.86
71206;SHT31;58935;54.498;18.544;2023-07-20T01:50:53;14.51;77.91
71206;SHT31;58935;54.498;18.544;2023-07-20T01:53:19;14.51;77.88
71206;SHT31;58935;54.498;18.544;2023-07-20T01:55:46;14.50;77.96
71206;SHT31;58935;54.498;18.544;2023-07-20T01:58:11;14.51;77.95
71206;SHT31;58935;54.498;18.544;2023-07-20T02:00:37;14.51;77.93
71206;SHT31;58935;54.498;18.544;2023-07-20T02:03:03;14.51;77.88
71206;SHT31;58935;54.498;18.544;2023-07-20T02:05:28;14.51;77.82
71206;SHT31;58935;54.498;18.544;2023-07-20T02:07:54;14.50;77.81
71206;SHT31;58935;54.498;18.544;2023-07-20T02:10:19;14.50;77.79
71206;SHT31;58935;54.498;18.544;2023-07-20T02:12:44;14.48;77.80
71206;SHT31;58935;54.498;18.544;2023-07-20T02:15:10;14.48;77.90
71206;SHT31;58935;54.498;18.544;2023-07-20T02:17:35;14.47;77.90
71206;SHT31;58935;54.498;18.544;2023-07-20T02:20:00;14.46;77.94
71206;SHT31;58935;54.498;18.544;2023-07-20T02:22:26;14.44;78.00
71206;SHT31;58935;54.498;18.544;2023-07-20T02:24:51;14.45;78.01
71206;SHT31;58935;54.498;18.544;2023-07-20T02:27:16;14.45;78.12
71206;SHT31;58935;54.498;18.544;2023-07-20T02:29:42;14.43;78.06
71206;SHT31;58935;54.498;18.544;2023-07-20T02:32:08;14.43;78.03
71206;SHT31;58935;54.498;18.544;2023-07-20T02:34:35;14.44;78.15
71206;SHT31;58935;54.498;18.544;2023-07-20T02:37:01;14.44;78.24
71206;SHT31;58935;54.498;18.544;2023-07-20T02:39:27;14.42;78.29
71206;SHT31;58935;54.498;18.544;2023-07-20T02:41:53;14.41;78.28
71206;SHT31;58935;54.498;18.544;2023-07-20T02:44:19;14.40;78.25
71206;SHT31;58935;54.498;18.544;2023-07-20T02:46:44;14.38;78.36
71206;SHT31;58935;54.498;18.544;2023-07-20T02:49:10;14.37;78.40
71206;SHT31;58935;54.498;18.544;2023-07-20T02:51:35;14.38;78.35
71206;SHT31;58935;54.498;18.544;2023-07-20T02:54:01;14.40;78.50
71206;SHT31;58935;54.498;18.544;2023-07-20T02:56:26;14.40;78.51
71206;SHT31;58935;54.498;18.544;2023-07-20T02:58:52;14.41;78.61
71206;SHT31;58935;54.498;18.544;2023-07-20T03:01:18;14.45;78.63
71206;SHT31;58935;54.498;18.544;2023-07-20T03:03:43;14.47;78.53
71206;SHT31;58935;54.498;18.544;2023-07-20T03:06:12;14.48;78.40
71206;SHT31;58935;54.498;18.544;2023-07-20T03:08:39;14.49;78.40
71206;SHT31;58935;54.498;18.544;2023-07-20T03:11:06;14.50;78.40
71206;SHT31;58935;54.498;18.544;2023-07-20T03:13:32;14.52;78.46
71206;SHT31;58935;54.498;18.544;2023-07-20T03:15:58;14.53;78.48
71206;SHT31;58935;54.498;18.544;2023-07-20T03:18:23;14.55;78.50
71206;SHT31;58935;54.498;18.544;2023-07-20T03:20:48;14.64;78.32
71206;SHT31;58935;54.498;18.544;2023-07-20T03:23:14;14.68;78.09
71206;SHT31;58935;54.498;18.544;2023-07-20T03:25:40;14.73;78.04
71206;SHT31;58935;54.498;18.544;2023-07-20T03:28:06;14.78;77.91
71206;SHT31;58935;54.498;18.544;2023-07-20T03:30:31;14.83;77.80
71206;SHT31;58935;54.498;18.544;2023-07-20T03:32:56;14.88;77.62
71206;SHT31;58935;54.498;18.544;2023-07-20T03:35:22;14.89;77.49
71206;SHT31;58935;54.498;18.544;2023-07-20T03:37:48;14.90;77.45
71206;SHT31;58935;54.498;18.544;2023-07-20T03:40:13;14.91;77.45
71206;SHT31;58935;54.498;18.544;2023-07-20T03:42:39;14.94;77.40
71206;SHT31;58935;54.498;18.544;2023-07-20T03:45:05;14.99;77.33
71206;SHT31;58935;54.498;18.544;2023-07-20T03:47:31;15.03;77.30
71206;SHT31;58935;54.498;18.544;2023-07-20T03:49:57;15.10;77.27
71206;SHT31;58935;54.498;18.544;2023-07-20T03:52:23;15.17;77.19
71206;SHT31;58935;54.498;18.544;2023-07-20T03:54:48;15.24;77.05
71206;SHT31;58935;54.498;18.544;2023-07-20T03:57:16;15.31;76.91
71206;SHT31;58935;54.498;18.544;2023-07-20T03:59:44;15.40;76.81
71206;SHT31;58935;54.498;18.544;2023-07-20T04:02:11;15.50;76.62
71206;SHT31;58935;54.498;18.544;2023-07-20T04:04:36;15.62;76.45
71206;SHT31;58935;54.498;18.544;2023-07-20T04:07:01;15.73;76.22
71206;SHT31;58935;54.498;18.544;2023-07-20T04:09:27;15.84;76.01
71206;SHT31;58935;54.498;18.544;2023-07-20T04:11:52;15.90;75.81
71206;SHT31;58935;54.498;18.544;2023-07-20T04:14:17;15.98;75.66
71206;SHT31;58935;54.498;18.544;2023-07-20T04:16:43;16.04;75.60
71206;SHT31;58935;54.498;18.544;2023-07-20T04:19:10;16.12;75.40
71206;SHT31;58935;54.498;18.544;2023-07-20T04:21:39;16.18;75.31
71206;SHT31;58935;54.498;18.544;2023-07-20T04:24:06;16.25;75.14
71206;SHT31;58935;54.498;18.544;2023-07-20T04:26:31;16.31;74.85
71206;SHT31;58935;54.498;18.544;2023-07-20T04:28:57;16.33;74.72
71206;SHT31;58935;54.498;18.544;2023-07-20T04:31:24;16.32;74.44
71206;SHT31;58935;54.498;18.544;2023-07-20T04:33:50;16.32;74.50
71206;SHT31;58935;54.498;18.544;2023-07-20T04:36:16;16.33;74.36
71206;SHT31;58935;54.498;18.544;2023-07-20T04:38:44;16.31;74.27
71206;SHT31;58935;54.498;18.544;2023-07-20T04:41:13;16.27;74.20
71206;SHT31;58935;54.498;18.544;2023-07-20T04:43:42;16.25;74.23
71206;SHT31;58935;54.498;18.544;2023-07-20T04:46:08;16.24;74.20
71206;SHT31;58935;54.498;18.544;2023-07-20T04:48:37;16.23;74.12
71206;SHT31;58935;54.498;18.544;2023-07-20T04:51:03;16.23;74.31
71206;SHT31;58935;54.498;18.544;2023-07-20T04:53:29;16.23;74.35
71206;SHT31;58935;54.498;18.544;2023-07-20T04:55:56;16.20;74.46
71206;SHT31;58935;54.498;18.544;2023-07-20T04:58:21;16.17;74.58
71206;SHT31;58935;54.498;18.544;2023-07-20T05:00:50;16.13;74.73
71206;SHT31;58935;54.498;18.544;2023-07-20T05:03:16;16.07;74.97
71206;SHT31;58935;54.498;18.544;2023-07-20T05:05:42;16.02;75.14
71206;SHT31;58935;54.498;18.544;2023-07-20T05:08:08;16.00;75.33
71206;SHT31;58935;54.498;18.544;2023-07-20T05:10:34;16.00;75.43
71206;SHT31;58935;54.498;18.544;2023-07-20T05:12:59;15.99;75.61
71206;SHT31;58935;54.498;18.544;2023-07-20T05:15:25;15.99;75.70
71206;SHT31;58935;54.498;18.544;2023-07-20T05:17:50;16.00;75.79
71206;SHT31;58935;54.498;18.544;2023-07-20T05:20:16;16.03;75.82
71206;SHT31;58935;54.498;18.544;2023-07-20T05:22:42;16.07;75.89
71206;SHT31;58935;54.498;18.544;2023-07-20T05:25:08;16.13;75.86
71206;SHT31;58935;54.498;18.544;2023-07-20T05:27:36;16.17;75.81
71206;SHT31;58935;54.498;18.544;2023-07-20T05:30:03;16.21;75.86
71206;SHT31;58935;54.498;18.544;2023-07-20T05:32:30;16.22;76.05
71206;SHT31;58935;54.498;18.544;2023-07-20T05:34:56;16.23;76.31
71206;SHT31;58935;54.498;18.544;2023-07-20T05:37:21;16.22;76.29
71206;SHT31;58935;54.498;18.544;2023-07-20T05:39:46;16.18;76.37
71206;SHT31;58935;54.498;18.544;2023-07-20T05:42:12;16.15;76.44
71206;SHT31;58935;54.498;18.544;2023-07-20T05:44:37;16.15;76.54
71206;SHT31;58935;54.498;18.544;2023-07-20T05:47:04;16.20;76.61
71206;SHT31;58935;54.498;18.544;2023-07-20T05:49:30;16.26;76.30
71206;SHT31;58935;54.498;18.544;2023-07-20T05:51:55;16.33;75.93
71206;SHT31;58935;54.498;18.544;2023-07-20T05:54:21;16.38;75.37
71206;SHT31;58935;54.498;18.544;2023-07-20T05:56:47;16.43;75.29
71206;SHT31;58935;54.498;18.544;2023-07-20T05:59:12;16.49;75.20
71206;SHT31;58935;54.498;18.544;2023-07-20T06:01:38;16.57;74.39
71206;SHT31;58935;54.498;18.544;2023-07-20T06:04:03;16.65;74.27
71206;SHT31;58935;54.498;18.544;2023-07-20T06:06:29;16.73;74.32
71206;SHT31;58935;54.498;18.544;2023-07-20T06:08:54;16.76;73.99
71206;SHT31;58935;54.498;18.544;2023-07-20T06:11:20;16.77;74.18
71206;SHT31;58935;54.498;18.544;2023-07-20T06:17:26;16.77;74.50
71206;SHT31;58935;54.498;18.544;2023-07-20T06:19:51;16.75;74.38
71206;SHT31;58935;54.498;18.544;2023-07-20T06:22:16;16.75;74.60
71206;SHT31;58935;54.498;18.544;2023-07-20T06:24:42;16.74;74.70
71206;SHT31;58935;54.498;18.544;2023-07-20T06:27:07;16.73;74.87
71206;SHT31;58935;54.498;18.544;2023-07-20T06:29:32;16.75;74.99
71206;SHT31;58935;54.498;18.544;2023-07-20T06:31:57;16.74;74.94
71206;SHT31;58935;54.498;18.544;2023-07-20T06:34:23;16.74;75.17
71206;SHT31;58935;54.498;18.544;2023-07-20T06:36:48;16.75;74.90
71206;SHT31;58935;54.498;18.544;2023-07-20T06:39:13;16.73;74.59
71206;SHT31;58935;54.498;18.544;2023-07-20T06:41:39;16.74;74.46
71206;SHT31;58935;54.498;18.544;2023-07-20T06:44:04;16.75;73.86
71206;SHT31;58935;54.498;18.544;2023-07-20T06:46:30;16.76;73.93
71206;SHT31;58935;54.498;18.544;2023-07-20T06:48:55;16.81;73.76
71206;SHT31;58935;54.498;18.544;2023-07-20T06:51:21;16.83;73.49
71206;SHT31;58935;54.498;18.544;2023-07-20T06:53:47;16.82;72.94
71206;SHT31;58935;54.498;18.544;2023-07-20T06:56:12;16.83;72.89
71206;SHT31;58935;54.498;18.544;2023-07-20T06:58:38;16.83;72.45
71206;SHT31;58935;54.498;18.544;2023-07-20T07:01:07;16.86;72.66
71206;SHT31;58935;54.498;18.544;2023-07-20T07:03:33;16.83;72.19
71206;SHT31;58935;54.498;18.544;2023-07-20T07:05:59;16.78;71.58
71206;SHT31;58935;54.498;18.544;2023-07-20T07:08:24;16.69;71.63
71206;SHT31;58935;54.498;18.544;2023-07-20T07:10:50;16.63;71.76
71206;SHT31;58935;54.498;18.544;2023-07-20T07:13:17;16.59;71.77
71206;SHT31;58935;54.498;18.544;2023-07-20T07:15:42;16.53;71.97
71206;SHT31;58935;54.498;18.544;2023-07-20T07:18:07;16.49;72.26
71206;SHT31;58935;54.498;18.544;2023-07-20T07:20:33;16.42;72.18
71206;SHT31;58935;54.498;18.544;2023-07-20T07:22:58;16.38;72.66
71206;SHT31;58935;54.498;18.544;2023-07-20T07:25:23;16.34;72.66
71206;SHT31;58935;54.498;18.544;2023-07-20T07:27:49;16.27;72.76
71206;SHT31;58935;54.498;18.544;2023-07-20T07:33:56;16.20;73.15
71206;SHT31;58935;54.498;18.544;2023-07-20T07:36:22;16.22;73.43
71206;SHT31;58935;54.498;18.544;2023-07-20T07:38:49;16.28;73.56
71206;SHT31;58935;54.498;18.544;2023-07-20T07:41:15;16.35;73.61
71206;SHT31;58935;54.498;18.544;2023-07-20T07:43:40;16.45;73.87
71206;SHT31;58935;54.498;18.544;2023-07-20T07:46:05;16.53;73.63
71206;SHT31;58935;54.498;18.544;2023-07-20T07:48:31;16.63;73.23
71206;SHT31;58935;54.498;18.544;2023-07-20T07:50:56;16.73;72.66
71206;SHT31;58935;54.498;18.544;2023-07-20T07:53:21;16.82;71.39
71206;SHT31;58935;54.498;18.544;2023-07-20T07:55:47;16.92;69.90
71206;SHT31;58935;54.498;18.544;2023-07-20T07:58:13;17.02;69.87
71206;SHT31;58935;54.498;18.544;2023-07-20T08:00:39;17.10;69.34
71206;SHT31;58935;54.498;18.544;2023-07-20T08:03:05;17.18;69.16
71206;SHT31;58935;54.498;18.544;2023-07-20T08:05:32;17.25;69.29
71206;SHT31;58935;54.498;18.544;2023-07-20T08:07:59;17.33;69.63
71206;SHT31;58935;54.498;18.544;2023-07-20T08:10:25;17.38;69.32
71206;SHT31;58935;54.498;18.544;2023-07-20T08:12:50;17.50;69.04
71206;SHT31;58935;54.498;18.544;2023-07-20T08:15:16;17.61;67.91
71206;SHT31;58935;54.498;18.544;2023-07-20T08:17:42;17.72;67.59
71206;SHT31;58935;54.498;18.544;2023-07-20T08:20:09;17.87;67.41
71206;SHT31;58935;54.498;18.544;2023-07-20T08:22:37;18.03;66.94
71206;SHT31;58935;54.498;18.544;2023-07-20T08:25:04;18.19;67.42
71206;SHT31;58935;54.498;18.544;2023-07-20T08:27:31;18.32;67.03
71206;SHT31;58935;54.498;18.544;2023-07-20T08:29:56;18.42;66.41
71206;SHT31;58935;54.498;18.544;2023-07-20T08:32:22;18.48;65.48
71206;SHT31;58935;54.498;18.544;2023-07-20T08:34:47;18.49;65.52
71206;SHT31;58935;54.498;18.544;2023-07-20T08:37:12;18.50;65.51
71206;SHT31;58935;54.498;18.544;2023-07-20T08:39:37;18.48;64.99
71206;SHT31;58935;54.498;18.544;2023-07-20T08:42:03;18.44;64.95
71206;SHT31;58935;54.498;18.544;2023-07-20T08:44:34;18.45;65.56
71206;SHT31;58935;54.498;18.544;2023-07-20T08:47:02;18.50;65.83
71206;SHT31;58935;54.498;18.544;2023-07-20T08:49:29;18.55;65.19
71206;SHT31;58935;54.498;18.544;2023-07-20T08:51:57;18.61;65.40
71206;SHT31;58935;54.498;18.544;2023-07-20T08:54:24;18.73;65.92
71206;SHT31;58935;54.498;18.544;2023-07-20T08:56:57;18.86;65.05
71206;SHT31;58935;54.498;18.544;2023-07-20T08:59:27;18.96;64.63
71206;SHT31;58935;54.498;18.544;2023-07-20T09:01:54;19.06;64.35
71206;SHT31;58935;54.498;18.544;2023-07-20T09:04:22;19.18;64.27
71206;SHT31;58935;54.498;18.544;2023-07-20T09:06:48;19.27;63.46
71206;SHT31;58935;54.498;18.544;2023-07-20T09:09:14;19.30;63.04
71206;SHT31;58935;54.498;18.544;2023-07-20T09:11:40;19.30;62.01
71206;SHT31;58935;54.498;18.544;2023-07-20T09:14:06;19.32;61.83
71206;SHT31;58935;54.498;18.544;2023-07-20T09:19:19;19.46;62.33
71206;SHT31;58935;54.498;18.544;2023-07-20T09:21:46;19.56;61.60
71206;SHT31;58935;54.498;18.544;2023-07-20T09:24:13;19.66;61.17
71206;SHT31;58935;54.498;18.544;2023-07-20T09:26:41;19.80;61.04
71206;SHT31;58935;54.498;18.544;2023-07-20T09:29:08;19.90;60.74
71206;SHT31;58935;54.498;18.544;2023-07-20T09:31:35;20.02;60.22
71206;SHT31;58935;54.498;18.544;2023-07-20T09:34:00;20.16;59.53
71206;SHT31;58935;54.498;18.544;2023-07-20T09:36:29;20.25;58.43
71206;SHT31;58935;54.498;18.544;2023-07-20T09:38:54;20.34;58.51
71206;SHT31;58935;54.498;18.544;2023-07-20T09:41:20;20.41;58.06
71206;SHT31;58935;54.498;18.544;2023-07-20T09:43:46;20.48;58.06
71206;SHT31;58935;54.498;18.544;2023-07-20T09:46:12;20.49;57.15
71206;SHT31;58935;54.498;18.544;2023-07-20T09:48:38;20.45;57.01
71206;SHT31;58935;54.498;18.544;2023-07-20T09:51:04;20.39;57.36
71206;SHT31;58935;54.498;18.544;2023-07-20T09:53:32;20.32;57.42
71206;SHT31;58935;54.498;18.544;2023-07-20T09:55:59;20.30;58.21
71206;SHT31;58935;54.498;18.544;2023-07-20T09:58:25;20.35;58.24
71206;SHT31;58935;54.498;18.544;2023-07-20T10:00:52;20.43;58.89
71206;SHT31;58935;54.498;18.544;2023-07-20T10:03:22;20.55;59.38
71206;SHT31;58935;54.498;18.544;2023-07-20T10:06:00;20.67;58.94
71206;SHT31;58935;54.498;18.544;2023-07-20T10:08:32;20.76;58.08
71206;SHT31;58935;54.498;18.544;2023-07-20T10:11:03;20.75;56.65
71206;SHT31;58935;54.498;18.544;2023-07-20T10:13:30;20.73;55.62
71206;SHT31;58935;54.498;18.544;2023-07-20T10:16:01;20.79;56.08
71206;SHT31;58935;54.498;18.544;2023-07-20T10:21:16;21.02;56.15
71206;SHT31;58935;54.498;18.544;2023-07-20T10:23:45;21.12;54.59
71206;SHT31;58935;54.498;18.544;2023-07-20T10:26:11;21.16;53.21
71206;SHT31;58935;54.498;18.544;2023-07-20T10:28:37;21.21;53.83
71206;SHT31;58935;54.498;18.544;2023-07-20T10:31:03;21.25;53.53
71206;SHT31;58935;54.498;18.544;2023-07-20T10:33:29;21.26;51.29
71206;SHT31;58935;54.498;18.544;2023-07-20T10:36:01;21.28;50.43
71206;SHT31;58935;54.498;18.544;2023-07-20T10:41:19;21.45;51.95
71206;SHT31;58935;54.498;18.544;2023-07-20T10:43:49;21.42;52.42
71206;SHT31;58935;54.498;18.544;2023-07-20T10:46:33;21.35;52.78
71206;SHT31;58935;54.498;18.544;2023-07-20T10:49:12;21.21;52.37
71206;SHT31;58935;54.498;18.544;2023-07-20T10:51:43;21.07;52.95
71206;SHT31;58935;54.498;18.544;2023-07-20T10:57:21;20.82;55.78
71206;SHT31;58935;54.498;18.544;2023-07-20T11:00:07;20.53;58.88
71206;SHT31;58935;54.498;18.544;2023-07-20T11:02:42;20.29;60.27
71206;SHT31;58935;54.498;18.544;2023-07-20T11:08:00;19.77;61.45
71206;SHT31;58935;54.498;18.544;2023-07-20T11:10:29;19.59;62.37
71206;SHT31;58935;54.498;18.544;2023-07-20T11:18:29;19.22;63.43
71206;SHT31;58935;54.498;18.544;2023-07-20T11:20:56;19.10;63.80
71206;SHT31;58935;54.498;18.544;2023-07-20T11:23:22;19.03;64.55
71206;SHT31;58935;54.498;18.544;2023-07-20T11:25:48;18.96;65.06
71206;SHT31;58935;54.498;18.544;2023-07-20T11:28:15;18.91;65.88
71206;SHT31;58935;54.498;18.544;2023-07-20T11:30:41;18.88;66.10
71206;SHT31;58935;54.498;18.544;2023-07-20T11:35:59;18.91;66.75
71206;SHT31;58935;54.498;18.544;2023-07-20T11:38:25;18.96;66.76
71206;SHT31;58935;54.498;18.544;2023-07-20T11:40:50;18.99;66.63
71206;SHT31;58935;54.498;18.544;2023-07-20T11:43:16;19.07;66.70
71206;SHT31;58935;54.498;18.544;2023-07-20T11:45:41;19.19;67.08
71206;SHT31;58935;54.498;18.544;2023-07-20T11:48:06;19.36;66.89
71206;SHT31;58935;54.498;18.544;2023-07-20T11:50:32;19.47;66.23
71206;SHT31;58935;54.498;18.544;2023-07-20T11:53:04;19.54;64.46
71206;SHT31;58935;54.498;18.544;2023-07-20T11:55:30;19.58;63.45
71206;SHT31;58935;54.498;18.544;2023-07-20T11:58:03;19.66;63.72
71206;SHT31;58935;54.498;18.544;2023-07-20T12:00:30;19.79;63.18
71206;SHT31;58935;54.498;18.544;2023-07-20T12:03:00;20.00;61.96
71206;SHT31;58935;54.498;18.544;2023-07-20T12:05:26;20.23;61.08
71206;SHT31;58935;54.498;18.544;2023-07-20T12:07:51;20.34;59.79
71206;SHT31;58935;54.498;18.544;2023-07-20T12:10:23;20.43;59.15
71206;SHT31;58935;54.498;18.544;2023-07-20T12:12:51;20.48;58.57
71206;SHT31;58935;54.498;18.544;2023-07-20T12:15:20;20.45;57.12
71206;SHT31;58935;54.498;18.544;2023-07-20T12:17:55;20.41;56.05
71206;SHT31;58935;54.498;18.544;2023-07-20T12:20:27;20.38;55.19
71206;SHT31;58935;54.498;18.544;2023-07-20T12:22:58;20.36;54.85
71206;SHT31;58935;54.498;18.544;2023-07-20T12:28:07;20.41;55.49
71206;SHT31;58935;54.498;18.544;2023-07-20T12:30:34;20.45;54.79
71206;SHT31;58935;54.498;18.544;2023-07-20T12:32:59;20.44;54.04
71206;SHT31;58935;54.498;18.544;2023-07-20T12:35:24;20.44;54.46
71206;SHT31;58935;54.498;18.544;2023-07-20T12:37:50;20.44;54.47
71206;SHT31;58935;54.498;18.544;2023-07-20T12:40:16;20.48;54.34
71206;SHT31;58935;54.498;18.544;2023-07-20T12:42:42;20.54;54.04
71206;SHT31;58935;54.498;18.544;2023-07-20T12:45:08;20.56;54.08
71206;SHT31;58935;54.498;18.544;2023-07-20T12:47:34;20.65;53.69
71206;SHT31;58935;54.498;18.544;2023-07-20T12:49:59;20.81;53.53
71206;SHT31;58935;54.498;18.544;2023-07-20T12:52:25;21.01;53.62
71206;SHT31;58935;54.498;18.544;2023-07-20T12:54:50;21.16;53.82
71206;SHT31;58935;54.498;18.544;2023-07-20T12:57:16;21.33;53.02
71206;SHT31;58935;54.498;18.544;2023-07-20T12:59:41;21.55;52.86
71206;SHT31;58935;54.498;18.544;2023-07-20T13:02:07;21.77;52.62
71206;SHT31;58935;54.498;18.544;2023-07-20T13:04:32;21.94;54.30
71206;SHT31;58935;54.498;18.544;2023-07-20T13:06:57;22.07;56.26
71206;SHT31;58935;54.498;18.544;2023-07-20T13:09:23;22.01;55.41
71206;SHT31;58935;54.498;18.544;2023-07-20T13:11:50;21.75;55.82
71206;SHT31;58935;54.498;18.544;2023-07-20T13:14:16;21.56;56.69
71206;SHT31;58935;54.498;18.544;2023-07-20T13:16:41;21.39;58.26
71206;SHT31;58935;54.498;18.544;2023-07-20T13:19:07;21.15;58.58
71206;SHT31;58935;54.498;18.544;2023-07-20T13:21:32;20.83;59.69
71206;SHT31;58935;54.498;18.544;2023-07-20T13:23:57;20.49;60.92
71206;SHT31;58935;54.498;18.544;2023-07-20T13:26:23;20.16;61.50
71206;SHT31;58935;54.498;18.544;2023-07-20T13:28:49;19.94;62.59
71206;SHT31;58935;54.498;18.544;2023-07-20T13:31:14;19.81;63.02
71206;SHT31;58935;54.498;18.544;2023-07-20T13:33:42;18.71;84.50
71206;SHT31;58935;54.498;18.544;2023-07-20T13:36:07;17.21;89.88
71206;SHT31;58935;54.498;18.544;2023-07-20T13:38:33;16.34;89.64
71206;SHT31;58935;54.498;18.544;2023-07-20T13:40:58;15.88;90.08
71206;SHT31;58935;54.498;18.544;2023-07-20T13:43:23;15.68;90.06
71206;SHT31;58935;54.498;18.544;2023-07-20T13:45:48;15.63;90.33
71206;SHT31;58935;54.498;18.544;2023-07-20T13:48:14;15.74;90.55
71206;SHT31;58935;54.498;18.544;2023-07-20T13:50:40;15.92;90.64
71206;SHT31;58935;54.498;18.544;2023-07-20T13:53:05;16.14;90.67
71206;SHT31;58935;54.498;18.544;2023-07-20T13:55:31;16.37;90.58
71206;SHT31;58935;54.498;18.544;2023-07-20T13:57:58;16.51;89.88
71206;SHT31;58935;54.498;18.544;2023-07-20T14:00:24;16.61;88.88
71206;SHT31;58935;54.498;18.544;2023-07-20T14:02:51;16.79;87.75
71206;SHT31;58935;54.498;18.544;2023-07-20T14:05:18;16.97;87.12
71206;SHT31;58935;54.498;18.544;2023-07-20T14:07:44;17.13;86.53
71206;SHT31;58935;54.498;18.544;2023-07-20T14:10:09;17.37;86.82
71206;SHT31;58935;54.498;18.544;2023-07-20T14:12:35;17.58;86.74
71206;SHT31;58935;54.498;18.544;2023-07-20T14:15:00;17.81;86.40
71206;SHT31;58935;54.498;18.544;2023-07-20T14:17:25;17.99;86.17
71206;SHT31;58935;54.498;18.544;2023-07-20T14:19:51;18.19;86.34
71206;SHT31;58935;54.498;18.544;2023-07-20T14:22:18;18.44;86.42
71206;SHT31;58935;54.498;18.544;2023-07-20T14:24:43;18.66;87.00
71206;SHT31;58935;54.498;18.544;2023-07-20T14:27:09;18.86;87.09
71206;SHT31;58935;54.498;18.544;2023-07-20T14:29:34;18.99;84.90
71206;SHT31;58935;54.498;18.544;2023-07-20T14:32:01;19.04;81.88
71206;SHT31;58935;54.498;18.544;2023-07-20T14:34:28;19.09;79.61
71206;SHT31;58935;54.498;18.544;2023-07-20T14:36:53;19.17;77.57
71206;SHT31;58935;54.498;18.544;2023-07-20T14:39:19;19.22;76.00
71206;SHT31;58935;54.498;18.544;2023-07-20T14:41:45;19.31;74.92
71206;SHT31;58935;54.498;18.544;2023-07-20T14:44:10;19.50;73.66
71206;SHT31;58935;54.498;18.544;2023-07-20T14:46:36;19.61;71.27
71206;SHT31;58935;54.498;18.544;2023-07-20T14:49:01;19.74;71.07
71206;SHT31;58935;54.498;18.544;2023-07-20T14:51:27;19.89;70.97
71206;SHT31;58935;54.498;18.544;2023-07-20T14:53:58;19.91;68.28
71206;SHT31;58935;54.498;18.544;2023-07-20T14:56:24;19.82;67.16
71206;SHT31;58935;54.498;18.544;2023-07-20T14:58:50;19.77;67.67
71206;SHT31;58935;54.498;18.544;2023-07-20T15:01:15;19.69;66.39
71206;SHT31;58935;54.498;18.544;2023-07-20T15:03:40;19.71;66.13
71206;SHT31;58935;54.498;18.544;2023-07-20T15:06:10;19.70;65.73
71206;SHT31;58935;54.498;18.544;2023-07-20T15:08:36;19.53;65.10
71206;SHT31;58935;54.498;18.544;2023-07-20T15:11:01;19.38;64.63
71206;SHT31;58935;54.498;18.544;2023-07-20T15:13:27;19.42;64.39
71206;SHT31;58935;54.498;18.544;2023-07-20T15:15:52;19.57;63.91
71206;SHT31;58935;54.498;18.544;2023-07-20T15:18:18;19.78;62.99
71206;SHT31;58935;54.498;18.544;2023-07-20T15:20:43;20.00;63.11
71206;SHT31;58935;54.498;18.544;2023-07-20T15:23:08;20.22;62.52
71206;SHT31;58935;54.498;18.544;2023-07-20T15:25:35;20.40;60.14
71206;SHT31;58935;54.498;18.544;2023-07-20T15:28:01;20.43;58.33
71206;SHT31;58935;54.498;18.544;2023-07-20T15:30:27;20.53;56.76
71206;SHT31;58935;54.498;18.544;2023-07-20T15:32:54;20.67;56.04
71206;SHT31;58935;54.498;18.544;2023-07-20T15:35:21;20.74;55.54
71206;SHT31;58935;54.498;18.544;2023-07-20T15:37:48;20.74;55.19
71206;SHT31;58935;54.498;18.544;2023-07-20T15:40:13;20.83;54.83
71206;SHT31;58935;54.498;18.544;2023-07-20T15:42:39;20.91;54.16
71206;SHT31;58935;54.498;18.544;2023-07-20T15:45:05;20.87;53.84
71206;SHT31;58935;54.498;18.544;2023-07-20T15:47:31;20.87;53.59
71206;SHT31;58935;54.498;18.544;2023-07-20T15:49:56;20.88;53.14
71206;SHT31;58935;54.498;18.544;2023-07-20T15:52:22;20.80;53.47
71206;SHT31;58935;54.498;18.544;2023-07-20T15:54:57;20.77;54.11
71206;SHT31;58935;54.498;18.544;2023-07-20T15:57:22;20.76;51.91